Time;durP1;ratioP1;P1;durP2;ratioP2;P2;SDS_P1;SDS_P2;PMS_P1;PMS_P2;Temp;Humidity;BMP_temperature;BMP_pressure;BME280_temperature;BME280_humidity;BME280_pressure;Samples;Min_cycle;Max_cycle;Signal;HPM_P1;HPM_P2
2023/07/27 00:00:00;;;;;;;6.20;3.73;;;14.50;99.90;;;;;;5065583;28;20417;-75
2023/07/27 00:02:46;;;;;;;11.57;2.80;;;14.50;99.90;;;;;;5064976;28;20456;-74
2023/07/27 00:05:33;;;;;;;5.27;3.07;;;14.60;99.90;;;;;;5063927;28;20473;-74
2023/07/27 00:08:18;;;;;;;6.40;3.40;;;14.60;99.90;;;;;;5065493;28;20442;-74
2023/07/27 00:11:04;;;;;;;4.53;3.20;;;14.60;99.90;;;;;;5065510;28;20442;-73
2023/07/27 00:13:50;;;;;;;4.77;3.20;;;14.60;99.90;;;;;;5061392;28;20452;-73
2023/07/27 00:16:35;;;;;;;4.90;3.37;;;14.70;99.90;;;;;;5064360;28;20466;-74
2023/07/27 00:19:21;;;;;;;5.20;3.10;;;14.70;99.90;;;;;;5064189;28;20466;-73
2023/07/27 00:22:08;;;;;;;4.20;2.87;;;14.70;99.90;;;;;;5063234;28;20500;-74
2023/07/27 00:24:53;;;;;;;11.77;3.50;;;14.70;99.90;;;;;;5064641;28;20440;-74
2023/07/27 00:27:38;;;;;;;4.40;3.60;;;14.60;99.90;;;;;;5064013;28;20882;-74
2023/07/27 00:30:24;;;;;;;5.33;3.50;;;14.50;99.90;;;;;;5064035;28;20488;-74
2023/07/27 00:33:10;;;;;;;6.37;3.63;;;14.50;99.90;;;;;;5063172;28;20509;-74
2023/07/27 00:35:56;;;;;;;7.43;4.00;;;14.50;99.90;;;;;;5063060;28;20441;-74
2023/07/27 00:38:43;;;;;;;5.13;3.20;;;14.40;99.90;;;;;;5063678;28;20543;-74
2023/07/27 00:41:29;;;;;;;5.83;3.13;;;14.50;99.90;;;;;;5065208;28;20464;-74
2023/07/27 00:44:14;;;;;;;7.33;3.27;;;14.50;99.90;;;;;;5062968;28;20594;-74
2023/07/27 00:47:00;;;;;;;4.00;3.00;;;14.50;99.90;;;;;;5065105;28;21214;-74
2023/07/27 00:49:46;;;;;;;4.97;3.20;;;14.50;99.90;;;;;;5063785;28;20472;-73
2023/07/27 00:52:32;;;;;;;4.70;3.30;;;14.30;99.90;;;;;;5063794;28;20531;-74
2023/07/27 00:55:18;;;;;;;4.17;3.00;;;14.40;99.90;;;;;;5063994;28;20934;-74
2023/07/27 00:58:04;;;;;;;5.07;4.07;;;14.40;99.90;;;;;;5064190;28;22397;-74
2023/07/27 01:00:50;;;;;;;5.17;3.30;;;14.40;99.90;;;;;;5065907;28;20897;-74
2023/07/27 01:03:36;;;;;;;5.20;2.93;;;14.50;99.90;;;;;;5066264;28;20426;-74
2023/07/27 01:06:22;;;;;;;6.53;3.70;;;14.50;99.90;;;;;;5066433;28;20470;-74
2023/07/27 01:09:08;;;;;;;4.00;2.97;;;14.50;99.90;;;;;;5065615;28;20424;-74
2023/07/27 01:12:08;;;;;;;6.80;3.30;;;14.50;99.90;;;;;;5066785;28;20561;-74
2023/07/27 01:15:01;;;;;;;9.53;3.73;;;14.50;99.90;;;;;;5066801;28;20991;-73
2023/07/27 01:17:53;;;;;;;5.93;3.40;;;14.40;99.90;;;;;;5065807;28;22494;-74
2023/07/27 01:20:46;;;;;;;3.23;2.50;;;14.40;99.90;;;;;;5070748;28;20451;-74
2023/07/27 01:24:07;;;;;;;5.07;3.27;;;14.40;99.90;;;;;;5069507;28;20461;-74
2023/07/27 01:27:28;;;;;;;4.70;2.77;;;14.40;99.90;;;;;;5066037;28;21007;-73
2023/07/27 01:30:30;;;;;;;6.47;3.07;;;14.40;99.90;;;;;;5065228;28;20494;-74
2023/07/27 01:33:21;;;;;;;5.90;3.17;;;14.40;99.90;;;;;;5066013;28;20413;-73
2023/07/27 01:36:11;;;;;;;9.13;4.20;;;14.30;99.90;;;;;;5065269;28;20465;-73
2023/07/27 01:39:02;;;;;;;6.40;3.20;;;14.40;99.90;;;;;;5065784;28;20480;-72
2023/07/27 01:41:49;;;;;;;7.07;3.80;;;14.40;99.90;;;;;;5072431;28;20596;-72
2023/07/27 01:44:36;;;;;;;13.53;3.47;;;14.40;99.90;;;;;;5065599;28;20791;-73
2023/07/27 01:47:24;;;;;;;3.80;3.20;;;14.40;99.90;;;;;;5067475;28;20442;-72
2023/07/27 01:50:14;;;;;;;4.50;3.20;;;14.40;99.90;;;;;;5064212;28;20446;-72
2023/07/27 01:53:01;;;;;;;4.00;2.90;;;14.40;99.90;;;;;;5066668;28;20441;-72
2023/07/27 01:55:48;;;;;;;3.33;2.83;;;14.50;99.90;;;;;;5066906;28;20451;-73
2023/07/27 01:58:36;;;;;;;3.60;3.03;;;14.40;99.90;;;;;;5065567;28;20999;-72
2023/07/27 02:01:21;;;;;;;6.47;3.60;;;14.50;99.90;;;;;;5064965;28;20441;-72
2023/07/27 02:04:07;;;;;;;6.17;3.50;;;14.40;99.90;;;;;;5065449;28;20496;-73
2023/07/27 02:06:55;;;;;;;6.00;3.50;;;14.50;99.90;;;;;;5065960;28;20994;-72
2023/07/27 02:09:40;;;;;;;4.27;2.93;;;14.50;99.90;;;;;;5067016;28;20479;-73
2023/07/27 02:12:35;;;;;;;5.87;3.80;;;14.40;99.90;;;;;;5065263;28;20418;-72
2023/07/27 02:15:24;;;;;;;11.33;3.30;;;14.40;99.90;;;;;;5065928;28;20987;-73
2023/07/27 02:18:16;;;;;;;4.30;3.27;;;14.50;99.90;;;;;;5065900;28;20445;-73
2023/07/27 02:21:04;;;;;;;7.63;3.27;;;14.40;99.90;;;;;;5066437;28;20965;-73
2023/07/27 02:23:53;;;;;;;4.23;3.63;;;14.40;99.90;;;;;;5064383;28;20425;-73
2023/07/27 02:26:39;;;;;;;3.70;3.40;;;14.50;99.90;;;;;;5065637;28;20490;-72
2023/07/27 02:29:24;;;;;;;4.00;3.20;;;14.50;99.90;;;;;;5065272;28;21000;-73
2023/07/27 02:32:10;;;;;;;4.40;3.27;;;14.50;99.90;;;;;;5069633;28;20433;-73
2023/07/27 02:34:55;;;;;;;4.70;3.70;;;14.40;99.90;;;;;;5064192;28;20846;-72
2023/07/27 02:37:41;;;;;;;6.30;3.50;;;14.40;99.90;;;;;;5064378;28;20508;-72
2023/07/27 02:40:28;;;;;;;7.90;3.57;;;14.40;99.90;;;;;;5065550;28;20473;-72
2023/07/27 02:43:13;;;;;;;7.63;3.50;;;14.40;99.90;;;;;;5063997;28;20488;-73
2023/07/27 02:45:59;;;;;;;7.13;3.63;;;14.40;99.90;;;;;;5065143;28;20475;-73
2023/07/27 02:48:45;;;;;;;7.83;3.10;;;14.50;99.90;;;;;;5065924;28;21008;-73
2023/07/27 02:51:30;;;;;;;6.80;3.07;;;14.50;99.90;;;;;;5066309;28;20450;-72
2023/07/27 02:54:16;;;;;;;3.70;3.30;;;14.50;99.90;;;;;;5065300;28;20499;-73
2023/07/27 02:57:03;;;;;;;4.50;3.40;;;14.60;99.90;;;;;;5064624;28;20421;-73
2023/07/27 02:59:48;;;;;;;6.20;4.07;;;14.50;99.90;;;;;;5063809;28;20485;-73
2023/07/27 03:02:34;;;;;;;4.33;3.60;;;14.60;99.90;;;;;;5063864;28;20847;-73
2023/07/27 03:05:19;;;;;;;5.13;3.30;;;14.60;99.90;;;;;;5063514;28;20901;-73
2023/07/27 03:08:05;;;;;;;6.47;3.20;;;14.60;99.90;;;;;;5063861;28;20421;-72
2023/07/27 03:10:51;;;;;;;6.60;3.57;;;14.70;99.90;;;;;;5065090;28;20694;-73
2023/07/27 03:13:38;;;;;;;5.80;3.90;;;14.80;99.90;;;;;;5064484;28;20459;-73
2023/07/27 03:16:23;;;;;;;7.70;3.80;;;14.70;99.90;;;;;;5064808;28;20464;-72
2023/07/27 03:19:09;;;;;;;6.20;3.80;;;14.80;99.90;;;;;;5064850;28;20429;-73
2023/07/27 03:21:54;;;;;;;13.00;3.50;;;14.80;99.90;;;;;;5065340;28;20478;-73
2023/07/27 03:24:40;;;;;;;5.13;3.70;;;14.90;99.90;;;;;;5063048;28;20416;-72
2023/07/27 03:27:25;;;;;;;9.50;4.30;;;14.90;99.90;;;;;;5064354;28;20451;-72
2023/07/27 03:30:13;;;;;;;11.90;3.33;;;14.90;99.90;;;;;;5063122;28;20417;-72
2023/07/27 03:32:58;;;;;;;10.13;3.93;;;15.00;99.90;;;;;;5065178;28;20437;-72
2023/07/27 03:35:44;;;;;;;7.60;3.67;;;15.00;99.90;;;;;;5063916;28;20529;-73
2023/07/27 03:38:32;;;;;;;6.90;3.03;;;15.00;99.90;;;;;;5064200;28;20453;-72
2023/07/27 03:41:17;;;;;;;7.33;3.30;;;15.10;99.90;;;;;;5062920;28;20459;-72
2023/07/27 03:44:03;;;;;;;4.63;2.50;;;15.10;99.90;;;;;;5063937;28;20425;-72
2023/07/27 03:46:49;;;;;;;4.53;2.90;;;15.20;99.90;;;;;;5064785;28;20474;-73
2023/07/27 03:49:35;;;;;;;3.60;2.70;;;15.30;99.90;;;;;;5062352;28;20469;-72
2023/07/27 03:52:21;;;;;;;9.60;2.53;;;15.30;99.90;;;;;;5064149;28;20429;-72
2023/07/27 03:55:07;;;;;;;5.63;3.50;;;15.30;99.90;;;;;;5064985;28;21616;-73
2023/07/27 03:57:52;;;;;;;4.03;3.03;;;15.30;99.90;;;;;;5062797;28;20752;-75
2023/07/27 04:00:37;;;;;;;7.23;3.03;;;15.40;99.90;;;;;;5064999;28;20454;-72
2023/07/27 04:03:24;;;;;;;4.40;3.00;;;15.40;99.90;;;;;;5062411;28;20571;-74
2023/07/27 04:06:10;;;;;;;6.60;3.90;;;15.50;99.90;;;;;;5064563;28;20531;-74
2023/07/27 04:08:55;;;;;;;5.70;2.73;;;15.40;99.90;;;;;;5065162;28;20917;-74
2023/07/27 04:11:41;;;;;;;4.73;3.23;;;15.40;99.90;;;;;;5065544;28;20584;-74
2023/07/27 04:14:26;;;;;;;8.90;3.30;;;15.40;99.90;;;;;;5063598;28;20458;-74
2023/07/27 04:17:12;;;;;;;4.90;3.20;;;15.50;99.90;;;;;;5065624;28;21325;-74
2023/07/27 04:19:59;;;;;;;5.20;2.93;;;15.50;99.90;;;;;;5064352;28;20450;-74
2023/07/27 04:22:44;;;;;;;4.00;2.53;;;15.50;99.90;;;;;;5064159;28;20448;-74
2023/07/27 04:25:30;;;;;;;3.57;2.87;;;15.60;99.90;;;;;;5060842;28;21936;-74
2023/07/27 04:28:16;;;;;;;4.80;3.00;;;15.70;99.90;;;;;;5063978;28;20410;-74
2023/07/27 04:31:01;;;;;;;7.83;2.90;;;15.90;99.90;;;;;;5069902;28;20911;-74
2023/07/27 04:33:47;;;;;;;4.10;3.00;;;16.00;99.90;;;;;;5062550;28;20811;-74
2023/07/27 04:36:34;;;;;;;3.87;2.57;;;16.10;99.90;;;;;;5068756;28;21060;-74
2023/07/27 04:39:19;;;;;;;4.70;2.60;;;16.20;99.90;;;;;;5067841;28;20436;-74
2023/07/27 04:42:06;;;;;;;3.30;2.33;;;16.30;99.90;;;;;;5069428;28;20500;-74
2023/07/27 04:44:51;;;;;;;5.97;2.37;;;16.40;99.90;;;;;;5067075;28;20507;-74
2023/07/27 04:47:37;;;;;;;8.50;2.60;;;16.40;99.90;;;;;;5065574;28;20526;-74
2023/07/27 04:50:22;;;;;;;7.47;2.60;;;16.50;99.90;;;;;;5067514;28;20580;-74
2023/07/27 04:53:09;;;;;;;3.80;2.20;;;16.60;99.90;;;;;;5067670;28;20502;-74
2023/07/27 04:55:55;;;;;;;2.90;2.40;;;16.60;99.90;;;;;;5068787;28;20716;-74
2023/07/27 04:58:40;;;;;;;5.47;2.60;;;16.60;99.90;;;;;;5067611;28;21232;-74
2023/07/27 05:01:26;;;;;;;6.70;2.80;;;16.60;99.90;;;;;;5067828;28;20470;-74
2023/07/27 05:04:11;;;;;;;4.17;2.60;;;16.60;99.90;;;;;;5065874;28;20439;-74
2023/07/27 05:06:57;;;;;;;3.30;2.40;;;16.70;99.90;;;;;;5069010;28;20428;-74
2023/07/27 05:09:44;;;;;;;3.77;2.20;;;16.80;99.90;;;;;;5067547;28;20420;-74
2023/07/27 05:12:31;;;;;;;4.60;2.93;;;16.70;99.90;;;;;;5067697;28;20564;-74
2023/07/27 05:15:17;;;;;;;8.93;2.50;;;16.80;99.90;;;;;;5066863;28;20494;-74
2023/07/27 05:18:02;;;;;;;3.50;2.37;;;16.70;99.90;;;;;;5067570;28;20790;-74
2023/07/27 05:20:48;;;;;;;4.30;2.40;;;16.70;99.90;;;;;;5067928;28;20434;-74
2023/07/27 05:23:34;;;;;;;4.20;2.70;;;16.70;99.90;;;;;;5066024;28;20811;-74
2023/07/27 05:26:20;;;;;;;9.87;3.00;;;16.80;99.90;;;;;;5065818;28;22813;-74
2023/07/27 05:29:06;;;;;;;5.13;2.43;;;16.70;99.90;;;;;;5065536;28;20461;-74
2023/07/27 05:31:51;;;;;;;3.47;2.20;;;16.70;99.90;;;;;;5069207;28;20446;-74
2023/07/27 05:34:37;;;;;;;3.30;2.40;;;16.70;99.90;;;;;;5068184;28;20426;-74
2023/07/27 05:37:23;;;;;;;5.30;2.60;;;16.80;99.90;;;;;;5069600;28;20484;-74
2023/07/27 05:40:09;;;;;;;5.50;2.57;;;16.80;99.90;;;;;;5069201;28;20494;-74
2023/07/27 05:42:56;;;;;;;8.50;3.00;;;16.80;99.90;;;;;;5069153;28;20438;-74
2023/07/27 05:45:42;;;;;;;3.80;2.60;;;16.90;99.90;;;;;;5068139;28;20855;-74
2023/07/27 05:48:27;;;;;;;5.50;2.87;;;16.90;99.90;;;;;;5065267;28;20451;-74
2023/07/27 05:51:13;;;;;;;4.63;2.53;;;16.90;99.90;;;;;;5067116;28;20460;-74
2023/07/27 05:53:58;;;;;;;7.60;2.90;;;17.00;99.90;;;;;;5066013;28;20524;-74
2023/07/27 05:56:44;;;;;;;6.03;2.60;;;17.10;99.90;;;;;;5066499;28;20465;-73
2023/07/27 05:59:31;;;;;;;4.70;2.53;;;17.10;99.90;;;;;;5065871;28;20787;-74
2023/07/27 06:02:16;;;;;;;6.23;2.63;;;17.10;99.90;;;;;;5067238;28;20447;-74
2023/07/27 06:05:02;;;;;;;3.40;2.20;;;17.10;99.90;;;;;;5076047;28;20830;-74
2023/07/27 06:07:47;;;;;;;3.30;2.20;;;17.10;99.90;;;;;;5067114;28;20421;-74
2023/07/27 06:10:33;;;;;;;4.23;2.80;;;17.00;99.90;;;;;;5072035;28;20489;-74
2023/07/27 06:13:19;;;;;;;7.43;2.50;;;17.00;99.90;;;;;;5065207;28;20983;-74
2023/07/27 06:16:06;;;;;;;6.27;2.23;;;17.00;99.90;;;;;;5070012;28;20440;-74
2023/07/27 06:18:51;;;;;;;3.40;2.23;;;17.00;99.90;;;;;;5066779;28;20474;-75
2023/07/27 06:21:37;;;;;;;4.20;2.30;;;17.10;99.90;;;;;;5067528;28;20480;-74
2023/07/27 06:24:22;;;;;;;7.77;2.73;;;17.10;99.90;;;;;;5065264;28;20978;-74
2023/07/27 06:27:08;;;;;;;3.27;2.30;;;17.10;99.90;;;;;;5065430;28;20958;-74
2023/07/27 06:29:54;;;;;;;5.63;2.60;;;17.00;99.90;;;;;;5066887;28;20442;-74
2023/07/27 06:32:41;;;;;;;4.43;2.40;;;17.00;99.90;;;;;;5067870;28;20478;-74
2023/07/27 06:35:26;;;;;;;5.20;3.43;;;17.10;99.90;;;;;;5066767;28;21002;-74
2023/07/27 06:38:12;;;;;;;6.33;2.60;;;17.10;99.90;;;;;;5066062;28;20904;-74
2023/07/27 06:40:58;;;;;;;4.53;3.40;;;17.20;99.90;;;;;;5075088;28;20483;-74
2023/07/27 06:43:43;;;;;;;5.63;2.57;;;17.30;99.90;;;;;;5067987;28;20929;-74
2023/07/27 06:46:29;;;;;;;3.70;1.93;;;17.30;99.90;;;;;;5066374;28;22121;-74
2023/07/27 06:49:16;;;;;;;5.40;3.00;;;17.30;99.90;;;;;;5065947;28;20455;-74
2023/07/27 06:52:01;;;;;;;4.13;2.70;;;17.30;99.90;;;;;;5065696;28;20574;-74
2023/07/27 06:54:47;;;;;;;4.77;2.70;;;17.30;99.90;;;;;;5065308;28;20442;-74
2023/07/27 06:57:33;;;;;;;4.10;2.27;;;17.30;99.90;;;;;;5064339;28;20935;-74
2023/07/27 07:00:18;;;;;;;7.33;2.50;;;17.30;99.90;;;;;;5064900;28;20874;-74
2023/07/27 07:03:04;;;;;;;3.33;2.77;;;17.30;99.90;;;;;;5067165;28;20426;-74
2023/07/27 07:05:51;;;;;;;4.10;3.03;;;17.30;99.90;;;;;;5069697;28;20441;-74
2023/07/27 07:08:36;;;;;;;6.03;2.73;;;17.30;99.90;;;;;;5068773;28;20449;-74
2023/07/27 07:11:21;;;;;;;4.80;2.50;;;17.30;99.90;;;;;;5070092;28;20453;-74
2023/07/27 07:14:07;;;;;;;5.00;2.73;;;17.30;99.90;;;;;;5068005;28;20452;-73
2023/07/27 07:16:52;;;;;;;7.80;2.60;;;17.20;99.90;;;;;;5065866;28;21045;-74
2023/07/27 07:19:38;;;;;;;4.13;2.90;;;17.20;99.90;;;;;;5065260;28;20946;-73
2023/07/27 07:22:25;;;;;;;4.63;2.73;;;17.10;99.90;;;;;;5067202;28;20463;-74
2023/07/27 07:25:11;;;;;;;6.80;3.37;;;17.00;99.90;;;;;;5061582;28;21261;-73
2023/07/27 07:27:56;;;;;;;6.37;3.60;;;17.00;99.90;;;;;;5064612;28;20819;-74
2023/07/27 07:30:42;;;;;;;5.00;3.03;;;16.90;99.90;;;;;;5068601;28;20554;-74
2023/07/27 07:33:27;;;;;;;6.80;3.60;;;16.70;99.90;;;;;;5066129;28;20503;-74
2023/07/27 07:36:13;;;;;;;6.10;3.23;;;16.70;99.90;;;;;;5067398;28;20973;-74
2023/07/27 07:38:59;;;;;;;5.40;3.40;;;16.70;99.90;;;;;;5065746;28;20531;-74
2023/07/27 07:41:45;;;;;;;4.83;3.43;;;16.60;99.90;;;;;;5065850;28;20459;-73
2023/07/27 07:44:31;;;;;;;4.93;4.20;;;16.60;99.90;;;;;;5065400;28;20946;-73
2023/07/27 07:47:16;;;;;;;8.27;4.10;;;16.40;99.90;;;;;;5063553;28;20807;-73
2023/07/27 07:50:02;;;;;;;6.50;4.00;;;16.40;99.90;;;;;;5066215;28;20797;-74
2023/07/27 07:52:48;;;;;;;8.17;4.00;;;16.50;99.90;;;;;;5070839;28;20420;-73
2023/07/27 07:55:36;;;;;;;7.40;3.33;;;16.50;99.90;;;;;;5067237;28;20464;-74
2023/07/27 07:58:22;;;;;;;5.67;3.50;;;16.40;99.90;;;;;;5064551;28;22379;-73
2023/07/27 08:01:08;;;;;;;6.17;3.60;;;16.30;99.90;;;;;;5065268;28;20428;-73
2023/07/27 08:03:53;;;;;;;4.43;3.13;;;16.30;99.90;;;;;;5064391;28;20434;-73
2023/07/27 08:06:39;;;;;;;4.97;3.27;;;16.30;99.90;;;;;;5064175;28;21122;-73
2023/07/27 08:09:24;;;;;;;4.73;3.90;;;16.30;99.90;;;;;;5062938;28;20459;-73
2023/07/27 08:12:11;;;;;;;5.67;3.60;;;16.30;99.90;;;;;;5065149;28;20455;-72
2023/07/27 08:14:58;;;;;;;4.80;3.83;;;16.30;99.90;;;;;;5065349;28;20479;-74
2023/07/27 08:17:43;;;;;;;11.40;4.17;;;16.30;99.90;;;;;;5068061;28;20450;-73
2023/07/27 08:20:29;;;;;;;5.27;3.30;;;16.40;99.90;;;;;;5064998;28;21018;-74
2023/07/27 08:23:14;;;;;;;7.00;4.40;;;16.40;99.90;;;;;;5065863;28;21206;-74
2023/07/27 08:26:01;;;;;;;9.27;3.70;;;16.40;99.90;;;;;;5062101;28;20436;-74
2023/07/27 08:28:48;;;;;;;4.10;3.20;;;16.40;99.90;;;;;;5066815;28;20416;-73
2023/07/27 08:31:33;;;;;;;5.50;3.80;;;16.40;99.90;;;;;;5067950;28;20445;-73
2023/07/27 08:34:19;;;;;;;4.90;3.97;;;16.50;99.90;;;;;;5065995;28;20503;-74
2023/07/27 08:37:06;;;;;;;3.83;3.43;;;16.40;99.90;;;;;;5068611;28;20796;-74
2023/07/27 08:39:51;;;;;;;5.53;3.67;;;16.40;99.90;;;;;;5063237;28;20428;-73
2023/07/27 08:42:37;;;;;;;7.00;3.40;;;16.40;99.90;;;;;;5065162;28;20813;-73
2023/07/27 08:45:24;;;;;;;7.53;3.70;;;16.40;99.90;;;;;;5062228;28;20582;-73
2023/07/27 08:48:11;;;;;;;5.53;3.23;;;16.40;99.90;;;;;;5064140;28;20573;-73
2023/07/27 08:50:58;;;;;;;11.93;3.63;;;16.40;99.90;;;;;;5065526;28;20959;-74
2023/07/27 08:53:43;;;;;;;7.07;4.20;;;16.30;99.90;;;;;;5062311;28;20473;-74
2023/07/27 08:56:29;;;;;;;4.83;3.50;;;16.30;99.90;;;;;;5063198;28;20475;-75
2023/07/27 08:59:14;;;;;;;4.13;3.73;;;16.30;99.90;;;;;;5063143;28;20469;-75
2023/07/27 09:02:01;;;;;;;5.10;3.00;;;16.30;99.90;;;;;;5066184;28;20421;-74
2023/07/27 09:04:47;;;;;;;4.00;3.00;;;16.10;99.90;;;;;;5063745;28;20946;-74
2023/07/27 09:07:32;;;;;;;5.80;3.00;;;16.00;99.90;;;;;;5067467;28;20971;-75
2023/07/27 09:10:18;;;;;;;5.07;3.30;;;16.00;99.90;;;;;;5064228;28;20439;-75
2023/07/27 09:13:03;;;;;;;4.57;3.13;;;15.90;99.90;;;;;;5064217;28;21233;-75
2023/07/27 09:15:50;;;;;;;5.67;3.00;;;15.90;99.90;;;;;;5063218;28;20441;-72
2023/07/27 09:18:38;;;;;;;6.10;3.90;;;15.80;99.90;;;;;;5064522;28;20442;-75
2023/07/27 09:21:23;;;;;;;5.63;4.00;;;15.80;99.90;;;;;;5066074;28;20817;-74
2023/07/27 09:24:11;;;;;;;4.30;3.17;;;15.70;99.90;;;;;;5066064;28;20485;-75
2023/07/27 09:26:56;;;;;;;6.27;4.13;;;15.80;99.90;;;;;;5067375;28;20413;-74
2023/07/27 09:29:42;;;;;;;8.53;4.10;;;15.80;99.90;;;;;;5067684;28;20573;-73
2023/07/27 09:32:35;;;;;;;5.03;3.40;;;15.80;99.90;;;;;;5070740;28;20873;-74
2023/07/27 09:35:22;;;;;;;4.33;3.57;;;15.90;99.90;;;;;;5067471;28;20449;-75
2023/07/27 09:38:07;;;;;;;10.93;3.70;;;15.90;99.90;;;;;;5067842;28;20941;-74
2023/07/27 09:40:53;;;;;;;5.10;3.70;;;16.00;99.90;;;;;;5069191;28;20444;-75
2023/07/27 09:43:39;;;;;;;9.00;3.60;;;16.10;99.90;;;;;;5067781;28;20502;-74
2023/07/27 09:46:26;;;;;;;10.17;3.67;;;16.20;99.90;;;;;;5069074;28;20522;-74
2023/07/27 09:49:12;;;;;;;7.47;4.60;;;16.20;99.90;;;;;;5070996;28;20517;-74
2023/07/27 09:51:59;;;;;;;4.80;4.10;;;16.30;99.90;;;;;;5076104;28;20481;-73
2023/07/27 09:54:48;;;;;;;12.20;4.30;;;16.30;99.90;;;;;;5083096;28;20444;-73
2023/07/27 09:57:34;;;;;;;9.57;3.40;;;16.40;99.90;;;;;;5070727;28;20503;-73
2023/07/27 10:00:20;;;;;;;7.83;4.13;;;16.40;99.90;;;;;;5069274;28;20501;-73
2023/07/27 10:03:06;;;;;;;4.60;3.30;;;16.30;99.90;;;;;;5067105;28;20458;-73
2023/07/27 10:05:52;;;;;;;7.63;3.90;;;16.30;99.90;;;;;;5066487;28;20800;-73
2023/07/27 10:08:39;;;;;;;6.90;3.80;;;16.40;99.90;;;;;;5068342;28;20777;-73
2023/07/27 10:11:51;;;;;;;6.53;3.60;;;16.40;99.90;;;;;;5070320;28;23296;-73
2023/07/27 10:14:41;;;;;;;5.13;3.53;;;16.30;99.90;;;;;;5067770;28;21064;-73
2023/07/27 10:17:41;;;;;;;5.80;3.30;;;16.40;99.90;;;;;;5066764;28;21328;-73
2023/07/27 10:20:29;;;;;;;5.50;3.23;;;16.50;99.90;;;;;;5072477;28;20415;-75
2023/07/27 10:23:18;;;;;;;6.27;3.13;;;16.50;99.90;;;;;;5069635;28;20454;-74
2023/07/27 10:26:06;;;;;;;7.20;3.50;;;16.60;99.90;;;;;;5070168;28;20470;-74
2023/07/27 10:28:52;;;;;;;5.83;3.20;;;16.70;99.90;;;;;;5069791;28;20526;-74
2023/07/27 10:31:38;;;;;;;7.13;3.20;;;16.70;99.90;;;;;;5072417;28;21047;-74
2023/07/27 10:34:26;;;;;;;5.47;3.47;;;16.60;99.90;;;;;;5068209;28;20478;-75
2023/07/27 10:37:13;;;;;;;7.40;4.07;;;16.60;99.90;;;;;;5072672;28;20487;-74
2023/07/27 10:39:59;;;;;;;8.63;3.37;;;16.50;99.90;;;;;;5074242;28;20449;-74
2023/07/27 10:42:56;;;;;;;6.47;4.50;;;16.50;99.90;;;;;;5071942;28;20443;-74
2023/07/27 10:45:42;;;;;;;7.20;4.43;;;16.50;99.90;;;;;;5072469;28;20478;-74
2023/07/27 10:48:27;;;;;;;8.77;5.17;;;16.50;99.90;;;;;;5073868;28;20454;-74
2023/07/27 10:51:13;;;;;;;5.80;4.33;;;16.60;99.90;;;;;;5072628;28;20833;-74
2023/07/27 10:53:59;;;;;;;7.53;4.90;;;16.50;99.90;;;;;;5076039;28;21488;-75
2023/07/27 10:56:44;;;;;;;9.43;4.90;;;16.50;99.90;;;;;;5072563;28;20636;-74
2023/07/27 10:59:34;;;;;;;7.87;4.73;;;16.40;99.90;;;;;;5074556;28;20450;-74
2023/07/27 11:02:21;;;;;;;5.53;3.60;;;16.40;99.90;;;;;;5070534;28;21386;-74
2023/07/27 11:05:08;;;;;;;8.60;3.83;;;16.40;99.90;;;;;;5070513;28;20471;-74
2023/07/27 11:08:02;;;;;;;6.57;4.00;;;16.50;99.90;;;;;;5074247;28;20792;-74
2023/07/27 11:10:47;;;;;;;8.67;4.50;;;16.50;99.90;;;;;;5071570;28;20884;-74
2023/07/27 11:13:33;;;;;;;4.53;3.60;;;16.60;99.90;;;;;;5072494;28;20421;-74
2023/07/27 11:16:21;;;;;;;7.30;4.13;;;16.60;99.90;;;;;;5070934;28;20482;-74
2023/07/27 11:19:08;;;;;;;4.80;4.00;;;16.50;99.90;;;;;;5071413;28;20421;-74
2023/07/27 11:21:54;;;;;;;7.03;4.53;;;16.40;99.90;;;;;;5073769;28;20412;-74
2023/07/27 11:24:40;;;;;;;9.10;4.50;;;16.50;99.90;;;;;;5070458;28;21052;-74
2023/07/27 11:27:26;;;;;;;7.70;4.07;;;16.50;99.90;;;;;;5071930;28;20449;-74
2023/07/27 11:30:17;;;;;;;8.50;4.60;;;16.60;99.90;;;;;;5074983;28;20611;-75
2023/07/27 11:33:05;;;;;;;6.60;4.40;;;16.60;99.90;;;;;;5072840;28;20429;-74
2023/07/27 11:35:50;;;;;;;5.63;4.37;;;16.70;99.90;;;;;;5068359;28;20916;-74
2023/07/27 11:38:36;;;;;;;7.10;4.00;;;16.70;99.90;;;;;;5071416;28;20451;-73
2023/07/27 11:41:21;;;;;;;6.20;4.53;;;16.60;99.90;;;;;;5070778;28;20846;-74
2023/07/27 11:44:07;;;;;;;4.97;4.47;;;16.70;99.90;;;;;;5074021;28;20432;-74
2023/07/27 11:46:55;;;;;;;7.93;4.90;;;16.70;99.90;;;;;;5066404;28;20445;-73
2023/07/27 11:49:42;;;;;;;7.20;6.00;;;16.80;99.90;;;;;;5073176;28;21115;-72
2023/07/27 11:52:28;;;;;;;7.60;5.67;;;16.90;99.90;;;;;;5070632;28;20462;-73
2023/07/27 11:55:16;;;;;;;7.83;4.40;;;16.80;99.90;;;;;;5073876;28;20519;-72
2023/07/27 11:58:05;;;;;;;4.20;3.60;;;16.90;99.90;;;;;;5071856;28;20428;-74
2023/07/27 12:00:51;;;;;;;5.60;4.50;;;16.90;99.90;;;;;;5072287;28;20429;-72
2023/07/27 12:03:39;;;;;;;10.57;6.20;;;16.90;99.90;;;;;;5070150;28;20425;-72
2023/07/27 12:06:26;;;;;;;6.50;4.13;;;16.90;99.90;;;;;;5069288;28;20470;-73
2023/07/27 12:09:12;;;;;;;5.90;3.87;;;17.00;99.90;;;;;;5070753;28;20744;-73
2023/07/27 12:11:58;;;;;;;7.17;4.27;;;17.00;99.90;;;;;;5067783;28;20417;-72
2023/07/27 12:14:44;;;;;;;5.80;3.33;;;17.00;99.90;;;;;;5074085;28;21011;-73
2023/07/27 12:17:29;;;;;;;6.30;4.20;;;17.00;99.90;;;;;;5068906;28;20428;-72
2023/07/27 12:20:15;;;;;;;4.90;3.50;;;17.10;99.90;;;;;;5069708;28;20450;-74
2023/07/27 12:23:02;;;;;;;3.70;3.20;;;17.10;99.90;;;;;;5072160;28;20423;-73
2023/07/27 12:25:48;;;;;;;8.90;4.00;;;17.20;99.90;;;;;;5065384;28;20470;-74
2023/07/27 12:28:34;;;;;;;4.97;3.60;;;17.20;99.90;;;;;;5067672;28;20474;-74
2023/07/27 12:31:19;;;;;;;5.00;4.00;;;17.20;99.90;;;;;;5070808;28;20420;-74
2023/07/27 12:34:05;;;;;;;9.03;3.87;;;17.20;99.90;;;;;;5069676;28;20463;-74
2023/07/27 12:36:50;;;;;;;5.80;3.83;;;17.20;99.90;;;;;;5067273;28;20433;-74
2023/07/27 12:39:38;;;;;;;7.07;4.57;;;17.20;99.90;;;;;;5068502;28;21461;-73
2023/07/27 12:42:24;;;;;;;7.70;3.70;;;17.20;99.90;;;;;;5071111;28;21098;-73
2023/07/27 12:45:10;;;;;;;6.87;4.43;;;17.10;99.90;;;;;;5067865;28;20612;-74
2023/07/27 12:47:56;;;;;;;11.13;5.17;;;17.20;99.90;;;;;;5069273;28;20829;-74
2023/07/27 12:50:42;;;;;;;5.90;3.60;;;17.10;99.90;;;;;;5068283;28;20429;-73
2023/07/27 12:53:27;;;;;;;4.90;4.27;;;17.10;99.90;;;;;;5073574;28;20453;-74
2023/07/27 12:56:14;;;;;;;4.77;4.17;;;17.10;99.90;;;;;;5068395;28;20496;-73
2023/07/27 12:59:00;;;;;;;5.93;4.50;;;17.20;99.90;;;;;;5076067;28;20543;-73
2023/07/27 13:01:45;;;;;;;7.33;4.33;;;17.20;99.90;;;;;;5071930;28;21392;-73
2023/07/27 13:04:31;;;;;;;5.50;4.10;;;17.10;99.90;;;;;;5074850;28;20958;-73
2023/07/27 13:07:17;;;;;;;7.73;4.57;;;17.20;99.90;;;;;;5071007;28;20950;-73
2023/07/27 13:10:02;;;;;;;8.60;4.90;;;17.20;99.90;;;;;;5074742;28;21045;-74
2023/07/27 13:12:49;;;;;;;8.30;4.90;;;17.20;99.90;;;;;;5072689;28;20490;-74
2023/07/27 13:15:36;;;;;;;8.47;4.70;;;17.30;99.90;;;;;;5070281;28;20456;-74
2023/07/27 13:18:21;;;;;;;6.00;4.80;;;17.30;99.90;;;;;;5073183;28;20536;-73
2023/07/27 13:21:07;;;;;;;6.83;4.93;;;17.40;99.90;;;;;;5071750;28;20422;-73
2023/07/27 13:23:52;;;;;;;6.57;5.10;;;17.50;99.90;;;;;;5072503;28;20428;-74
2023/07/27 13:26:37;;;;;;;7.10;4.97;;;17.50;99.90;;;;;;5069142;28;20436;-74
2023/07/27 13:29:30;;;;;;;5.77;4.97;;;17.60;99.90;;;;;;5073885;28;20412;-73
2023/07/27 13:32:15;;;;;;;7.17;5.20;;;17.60;99.90;;;;;;5077501;28;20957;-73
2023/07/27 13:35:01;;;;;;;4.97;4.40;;;17.60;99.90;;;;;;5072111;28;20507;-73
2023/07/27 13:37:46;;;;;;;6.23;4.93;;;17.50;99.90;;;;;;5072009;28;20936;-74
2023/07/27 13:40:31;;;;;;;5.90;4.73;;;17.50;99.90;;;;;;5074772;28;20795;-73
2023/07/27 13:43:17;;;;;;;7.57;4.80;;;17.50;99.90;;;;;;5077075;28;20790;-73
2023/07/27 13:46:04;;;;;;;9.93;4.13;;;17.50;99.90;;;;;;5081338;28;20474;-73
2023/07/27 13:48:49;;;;;;;6.60;4.20;;;17.50;99.90;;;;;;5075434;28;20549;-73
2023/07/27 13:51:35;;;;;;;13.47;5.17;;;17.60;99.90;;;;;;5072908;28;20982;-73
2023/07/27 13:54:20;;;;;;;5.23;4.20;;;17.50;99.90;;;;;;5076036;28;20783;-74
2023/07/27 13:57:06;;;;;;;8.97;5.37;;;17.60;99.90;;;;;;5071705;28;20557;-73
2023/07/27 13:59:52;;;;;;;7.83;5.07;;;17.70;99.90;;;;;;5074282;28;20432;-72
2023/07/27 14:02:39;;;;;;;12.83;5.43;;;17.80;99.90;;;;;;5070632;28;20414;-72
2023/07/27 14:05:24;;;;;;;7.93;5.30;;;17.80;99.90;;;;;;5069687;28;20795;-72
2023/07/27 14:08:10;;;;;;;9.13;5.20;;;17.90;99.90;;;;;;5077457;28;20950;-72
2023/07/27 14:10:55;;;;;;;6.53;5.87;;;17.80;99.90;;;;;;5073568;28;20528;-73
2023/07/27 14:13:41;;;;;;;11.80;5.67;;;17.90;99.90;;;;;;5072413;28;20421;-73
2023/07/27 14:16:27;;;;;;;6.57;4.20;;;17.90;99.90;;;;;;5069883;28;20479;-72
2023/07/27 14:19:13;;;;;;;6.50;4.97;;;17.90;99.90;;;;;;5070670;28;21021;-73
2023/07/27 14:21:59;;;;;;;7.50;6.20;;;18.00;99.90;;;;;;5072429;28;20442;-73
2023/07/27 14:24:45;;;;;;;7.90;6.13;;;18.00;99.90;;;;;;5071495;28;20429;-72